createdAt,value
2016-11-06T00:00:02.990Z,986.79
2016-11-06T00:01:03.007Z,986.87
2016-11-06T00:02:03.022Z,986.95
2016-11-06T00:03:03.036Z,986.91
2016-11-06T00:04:03.059Z,986.96
2016-11-06T00:05:03.066Z,986.95
2016-11-06T00:06:03.082Z,986.91
2016-11-06T00:07:03.096Z,986.93
2016-11-06T00:08:03.112Z,987
2016-11-06T00:09:03.128Z,987.04
2016-11-06T00:10:03.143Z,987.07
2016-11-06T00:11:03.159Z,987.07
2016-11-06T00:12:03.174Z,987.08
2016-11-06T00:13:03.189Z,987.1
2016-11-06T00:14:03.205Z,987.11
2016-11-06T00:15:03.225Z,987.12
2016-11-06T00:16:03.238Z,987.11
2016-11-06T00:17:03.251Z,987.07
2016-11-06T00:18:03.266Z,987.13
2016-11-06T00:19:03.280Z,987.09
2016-11-06T00:20:03.297Z,987.13
2016-11-06T00:21:03.313Z,987.2
2016-11-06T00:22:03.332Z,987.23
2016-11-06T00:23:03.344Z,987.27
2016-11-06T00:24:03.363Z,987.28
2016-11-06T00:25:03.379Z,987.34
2016-11-06T00:26:03.395Z,987.34
2016-11-06T00:27:03.405Z,987.41
2016-11-06T00:28:03.420Z,987.36
2016-11-06T00:29:03.437Z,987.31
2016-11-06T00:30:03.455Z,987.25
2016-11-06T00:31:03.470Z,987.3
2016-11-06T00:32:03.484Z,987.29
2016-11-06T00:33:03.496Z,987.34
2016-11-06T00:34:03.512Z,987.3
2016-11-06T00:35:03.528Z,987.31
2016-11-06T00:36:03.543Z,987.28
2016-11-06T00:37:03.559Z,987.27
2016-11-06T00:38:03.574Z,987.24
2016-11-06T00:39:03.589Z,987.29
2016-11-06T00:40:03.604Z,987.3
2016-11-06T00:41:03.618Z,987.31
2016-11-06T00:42:03.633Z,987.32
2016-11-06T00:43:03.648Z,987.38
2016-11-06T00:44:03.665Z,987.39
2016-11-06T00:45:03.679Z,987.41
2016-11-06T00:46:03.696Z,987.4
2016-11-06T00:47:03.712Z,987.34
2016-11-06T00:48:03.726Z,987.26
2016-11-06T00:49:03.741Z,987.28
2016-11-06T00:50:03.757Z,987.28
2016-11-06T00:51:03.772Z,987.31
2016-11-06T00:52:03.786Z,987.3
2016-11-06T00:53:03.801Z,987.32
2016-11-06T00:54:03.816Z,987.3
2016-11-06T00:55:03.831Z,987.28
2016-11-06T00:56:03.850Z,987.23
2016-11-06T00:57:03.863Z,987.17
2016-11-06T00:58:03.880Z,987.17
2016-11-06T00:59:03.895Z,987.21
2016-11-06T01:00:03.910Z,987.23
2016-11-06T01:01:03.929Z,987.25
2016-11-06T01:02:03.939Z,987.21
2016-11-06T01:03:03.953Z,987.25
2016-11-06T01:04:03.969Z,987.21
2016-11-06T01:05:03.984Z,987.25
2016-11-06T01:06:04.001Z,987.21
2016-11-06T01:07:04.017Z,987.18
2016-11-06T01:08:04.031Z,987.16
2016-11-06T01:09:04.046Z,987.16
2016-11-06T01:10:04.062Z,987.14
2016-11-06T01:11:04.077Z,987.1
2016-11-06T01:12:04.093Z,987.14
2016-11-06T01:13:04.109Z,987.16
2016-11-06T01:14:04.122Z,987.16
2016-11-06T01:15:04.143Z,987.14
2016-11-06T01:16:04.154Z,987.1
2016-11-06T01:17:04.167Z,987.09
2016-11-06T01:18:04.182Z,987.06
2016-11-06T01:19:04.197Z,987.05
2016-11-06T01:20:04.214Z,987.03
2016-11-06T01:21:04.227Z,987.03
2016-11-06T01:22:04.244Z,986.98
2016-11-06T01:23:04.260Z,987
2016-11-06T01:24:04.275Z,987.01
2016-11-06T01:25:04.290Z,986.99
2016-11-06T01:26:04.307Z,986.99
2016-11-06T01:27:04.320Z,987
2016-11-06T01:28:04.334Z,986.98
2016-11-06T01:29:04.349Z,986.97
2016-11-06T01:30:04.364Z,986.94
2016-11-06T01:31:04.387Z,986.92
2016-11-06T01:32:04.394Z,986.9
2016-11-06T01:33:04.410Z,986.9
2016-11-06T01:34:04.427Z,986.86
2016-11-06T01:35:04.442Z,986.84
2016-11-06T01:36:04.458Z,986.83
2016-11-06T01:37:04.473Z,986.87
2016-11-06T01:38:04.486Z,986.88
2016-11-06T01:39:04.502Z,986.89
2016-11-06T01:40:04.516Z,986.88
2016-11-06T01:41:04.533Z,986.93
2016-11-06T01:42:04.546Z,986.91
2016-11-06T01:43:04.564Z,986.93
2016-11-06T01:44:04.579Z,986.92
2016-11-06T01:45:04.597Z,986.95
2016-11-06T01:46:04.609Z,986.97
2016-11-06T01:47:04.624Z,986.9
2016-11-06T01:48:04.640Z,986.95
2016-11-06T01:49:04.654Z,986.98
2016-11-06T01:50:04.670Z,986.99
2016-11-06T01:51:04.687Z,987.01
2016-11-06T01:52:04.701Z,987.03
2016-11-06T01:53:04.719Z,987.08
2016-11-06T01:54:04.732Z,987.1
2016-11-06T01:55:04.747Z,987.13
2016-11-06T01:56:04.763Z,987.17
2016-11-06T01:57:04.777Z,987.1
2016-11-06T01:58:04.791Z,987.08
2016-11-06T01:59:04.808Z,987.11
2016-11-06T02:00:04.824Z,987.15
2016-11-06T02:01:04.837Z,987.12
2016-11-06T02:02:04.863Z,987.12
2016-11-06T02:03:04.868Z,987.06
2016-11-06T02:04:04.884Z,987.01
2016-11-06T02:05:04.899Z,986.94
2016-11-06T02:06:04.913Z,986.91
2016-11-06T02:07:04.929Z,986.92
2016-11-06T02:08:04.946Z,987
2016-11-06T02:09:04.960Z,987.06
2016-11-06T02:10:04.983Z,987.05
2016-11-06T02:11:04.992Z,987.04
2016-11-06T02:12:05.007Z,987.04
2016-11-06T02:13:05.024Z,987.03
2016-11-06T02:14:05.035Z,987.02
2016-11-06T02:15:05.051Z,987.04
2016-11-06T02:16:05.067Z,987.06
2016-11-06T02:17:05.081Z,987.11
2016-11-06T02:18:05.099Z,987.12
2016-11-06T02:19:05.110Z,987.1
2016-11-06T02:20:05.128Z,987.11
2016-11-06T02:21:05.143Z,987.1
2016-11-06T02:22:05.167Z,987.13
2016-11-06T02:23:05.173Z,987.14
2016-11-06T02:24:05.203Z,987.12
2016-11-06T02:25:05.202Z,987.1
2016-11-06T02:26:05.223Z,987.08
2016-11-06T02:27:05.233Z,987.08
2016-11-06T02:28:05.249Z,987.09
2016-11-06T02:29:05.269Z,987.06
2016-11-06T02:30:05.287Z,987.12
2016-11-06T02:31:05.294Z,987.12
2016-11-06T02:32:05.309Z,987.15
2016-11-06T02:33:05.325Z,987.19
2016-11-06T02:34:05.342Z,987.2
2016-11-06T02:35:05.355Z,987.19
2016-11-06T02:36:05.370Z,987.2
2016-11-06T02:37:05.386Z,987.18
2016-11-06T02:38:05.400Z,987.21
2016-11-06T02:39:05.415Z,987.21
2016-11-06T02:40:05.439Z,987.19
2016-11-06T02:41:05.446Z,987.18
2016-11-06T02:42:05.467Z,987.16
2016-11-06T02:43:05.477Z,987.22
2016-11-06T02:44:05.499Z,987.24
2016-11-06T02:45:05.508Z,987.23
2016-11-06T02:46:05.527Z,987.2
2016-11-06T02:47:05.540Z,987.16
2016-11-06T02:48:05.563Z,987.15
2016-11-06T02:49:05.569Z,987.13
2016-11-06T02:50:05.591Z,987.13
2016-11-06T02:51:05.600Z,987.13
2016-11-06T02:52:05.617Z,987.08
2016-11-06T02:53:05.635Z,987.11
2016-11-06T02:54:05.642Z,987.13
2016-11-06T02:55:05.656Z,987.18
2016-11-06T02:56:05.676Z,987.18
2016-11-06T02:57:05.688Z,987.14
2016-11-06T02:58:05.715Z,987.16
2016-11-06T02:59:05.717Z,987.13
2016-11-06T03:00:05.735Z,987.16
2016-11-06T03:01:05.750Z,987.16
2016-11-06T03:02:05.765Z,987.16
2016-11-06T03:03:05.779Z,987.13
2016-11-06T03:04:05.793Z,987.15
2016-11-06T03:05:05.809Z,987.16
2016-11-06T03:06:05.824Z,987.16
2016-11-06T03:07:05.839Z,987.16
2016-11-06T03:08:05.859Z,987.09
2016-11-06T03:09:05.872Z,987.1
2016-11-06T03:10:05.886Z,987.05
2016-11-06T03:11:05.904Z,987.01
2016-11-06T03:12:05.915Z,987.01
2016-11-06T03:13:05.930Z,987.08
2016-11-06T03:14:05.945Z,987.09
2016-11-06T03:15:05.962Z,987.1
2016-11-06T03:16:05.976Z,987.08
2016-11-06T03:17:05.992Z,987.17
2016-11-06T03:18:06.005Z,987.17
2016-11-06T03:19:06.020Z,987.18
2016-11-06T03:20:06.047Z,987.13
2016-11-06T03:21:06.051Z,987.16
2016-11-06T03:22:06.075Z,987.15
2016-11-06T03:23:06.080Z,987.18
2016-11-06T03:24:06.103Z,987.18
2016-11-06T03:25:06.111Z,987.12
2016-11-06T03:26:06.139Z,987.05
2016-11-06T03:27:06.245Z,986.96
2016-11-06T03:28:06.417Z,986.97
2016-11-06T03:29:06.254Z,987.05
2016-11-06T03:30:06.263Z,987.1
2016-11-06T03:31:06.274Z,987.16
2016-11-06T03:32:06.281Z,987.18
2016-11-06T03:33:06.424Z,987.14
2016-11-06T03:34:06.289Z,987.07
2016-11-06T03:35:06.297Z,987.08
2016-11-06T03:36:06.307Z,987.1
2016-11-06T03:37:06.313Z,987.13
2016-11-06T03:38:06.600Z,987.18
2016-11-06T03:39:06.332Z,987.17
2016-11-06T03:40:06.390Z,987.19
2016-11-06T03:41:06.402Z,987.07
2016-11-06T03:42:06.415Z,987.05
2016-11-06T03:43:06.556Z,987.09
2016-11-06T03:44:06.415Z,987.14
2016-11-06T03:45:06.426Z,987.24
2016-11-06T03:46:06.435Z,987.3
2016-11-06T03:47:06.538Z,987.32
2016-11-06T03:48:06.558Z,987.27
2016-11-06T03:49:06.550Z,987.17
2016-11-06T03:50:06.564Z,987.08
2016-11-06T03:51:06.567Z,987.07
2016-11-06T03:52:06.566Z,987.16
2016-11-06T03:53:06.630Z,987.18
2016-11-06T03:54:06.584Z,987.3
2016-11-06T03:55:06.599Z,987.39
2016-11-06T03:56:06.604Z,987.38
2016-11-06T03:57:06.643Z,987.34
2016-11-06T03:58:06.605Z,987.21
2016-11-06T03:59:06.624Z,987.2
2016-11-06T04:00:06.637Z,987.26
2016-11-06T04:01:06.649Z,987.26
2016-11-06T04:02:06.664Z,987.28
2016-11-06T04:03:06.679Z,987.32
2016-11-06T04:04:06.695Z,987.27
2016-11-06T04:05:06.711Z,987.2
2016-11-06T04:06:06.725Z,987.12
2016-11-06T04:07:06.739Z,987.06
2016-11-06T04:08:06.765Z,987.09
2016-11-06T04:09:06.769Z,987.08
2016-11-06T04:10:06.782Z,987.07
2016-11-06T04:11:06.873Z,987.05
2016-11-06T04:12:06.812Z,987.07
2016-11-06T04:13:06.828Z,987.08
2016-11-06T04:14:06.843Z,987.14
2016-11-06T04:15:06.857Z,987.14
2016-11-06T04:16:06.951Z,987.12
2016-11-06T04:17:06.889Z,987.16
2016-11-06T04:18:07.102Z,987.16
2016-11-06T04:19:06.919Z,987.21
2016-11-06T04:20:06.933Z,987.18
2016-11-06T04:21:06.949Z,987.19
2016-11-06T04:22:06.964Z,987.22
2016-11-06T04:23:06.979Z,987.25
2016-11-06T04:24:06.992Z,987.23
2016-11-06T04:25:07.006Z,987.25
2016-11-06T04:26:07.021Z,987.28
2016-11-06T04:27:07.035Z,987.27
2016-11-06T04:28:07.051Z,987.28
2016-11-06T04:29:07.066Z,987.32
2016-11-06T04:30:07.083Z,987.32
2016-11-06T04:31:07.094Z,987.36
2016-11-06T04:32:07.110Z,987.4
2016-11-06T04:33:07.125Z,987.38
2016-11-06T04:34:07.139Z,987.36
2016-11-06T04:35:07.155Z,987.31
2016-11-06T04:36:07.169Z,987.3
2016-11-06T04:37:07.184Z,987.3
2016-11-06T04:38:07.200Z,987.3
2016-11-06T04:39:07.216Z,987.22
2016-11-06T04:40:07.228Z,987.19
2016-11-06T04:41:07.243Z,987.15
2016-11-06T04:42:07.259Z,987.15
2016-11-06T04:43:07.272Z,987.15
2016-11-06T04:44:07.292Z,987.17
2016-11-06T04:45:07.302Z,987.2
2016-11-06T04:46:07.318Z,987.15
2016-11-06T04:47:07.334Z,987.19
2016-11-06T04:48:07.347Z,987.18
2016-11-06T04:49:07.360Z,987.15
2016-11-06T04:50:07.378Z,987.21
2016-11-06T04:51:07.394Z,987.23
2016-11-06T04:52:07.405Z,987.26
2016-11-06T04:53:07.421Z,987.23
2016-11-06T04:54:07.440Z,987.19
2016-11-06T04:55:07.450Z,987.16
2016-11-06T04:56:07.464Z,987.13
2016-11-06T04:57:07.480Z,987.12
2016-11-06T04:58:07.493Z,987.09
2016-11-06T04:59:07.509Z,987.03
2016-11-06T05:00:07.524Z,987.03
2016-11-06T05:01:07.538Z,987.05
2016-11-06T05:02:07.554Z,987.06
2016-11-06T05:03:07.566Z,987.05
2016-11-06T05:04:07.584Z,986.98
2016-11-06T05:05:07.598Z,987.03
2016-11-06T05:06:07.612Z,987.02
2016-11-06T05:07:07.626Z,986.98
2016-11-06T05:08:07.643Z,986.91
2016-11-06T05:09:07.656Z,986.94
2016-11-06T05:10:07.673Z,986.95
2016-11-06T05:11:07.686Z,987
2016-11-06T05:12:07.700Z,987.01
2016-11-06T05:13:07.715Z,987.07
2016-11-06T05:14:07.728Z,987.04
2016-11-06T05:15:07.745Z,987.05
2016-11-06T05:16:07.761Z,987.03
2016-11-06T05:17:07.774Z,987.02
2016-11-06T05:18:07.787Z,986.98
2016-11-06T05:19:07.803Z,987
2016-11-06T05:20:07.817Z,986.92
2016-11-06T05:21:07.834Z,986.92
2016-11-06T05:22:07.847Z,986.9
2016-11-06T05:23:07.862Z,986.89
2016-11-06T05:24:07.876Z,986.82
2016-11-06T05:25:07.892Z,986.88
2016-11-06T05:26:07.905Z,986.85
2016-11-06T05:27:07.921Z,986.83
2016-11-06T05:28:07.934Z,986.84
2016-11-06T05:29:07.948Z,986.87
2016-11-06T05:30:07.963Z,986.86
2016-11-06T05:31:07.984Z,986.84
2016-11-06T05:32:07.994Z,986.78
2016-11-06T05:33:08.007Z,986.84
2016-11-06T05:34:08.021Z,986.87
2016-11-06T05:35:08.037Z,986.86
2016-11-06T05:36:08.051Z,986.91
2016-11-06T05:37:08.067Z,986.87
2016-11-06T05:38:08.081Z,986.88
2016-11-06T05:39:08.095Z,986.87
2016-11-06T05:40:08.111Z,986.91
2016-11-06T05:41:08.130Z,986.9
2016-11-06T05:42:08.141Z,986.97
2016-11-06T05:43:08.157Z,986.96
2016-11-06T05:44:08.167Z,986.92
2016-11-06T05:45:08.184Z,986.9
2016-11-06T05:46:08.198Z,986.86
2016-11-06T05:47:08.218Z,986.87
2016-11-06T05:48:08.226Z,986.88
2016-11-06T05:49:08.241Z,986.9
2016-11-06T05:50:08.256Z,986.9
2016-11-06T05:51:08.271Z,986.91
2016-11-06T05:52:08.286Z,986.88
2016-11-06T05:53:08.301Z,986.83
2016-11-06T05:54:08.315Z,986.83
2016-11-06T05:55:08.333Z,986.79
2016-11-06T05:56:08.347Z,986.79
2016-11-06T05:57:08.358Z,986.82
2016-11-06T05:58:08.373Z,986.86
2016-11-06T05:59:08.387Z,986.96
2016-11-06T06:00:08.402Z,987.02
2016-11-06T06:01:08.417Z,987.12
2016-11-06T06:02:08.432Z,987.14
2016-11-06T06:03:08.446Z,987.16
2016-11-06T06:04:08.464Z,987.24
2016-11-06T06:05:08.474Z,987.23
2016-11-06T06:06:08.492Z,987.21
2016-11-06T06:07:08.505Z,987.21
2016-11-06T06:08:08.518Z,987.17
2016-11-06T06:09:08.537Z,987.21
2016-11-06T06:10:08.549Z,987.25
2016-11-06T06:11:08.562Z,987.22
2016-11-06T06:12:08.577Z,987.31
2016-11-06T06:13:08.591Z,987.29
2016-11-06T06:14:08.606Z,987.36
2016-11-06T06:15:08.625Z,987.35
2016-11-06T06:16:08.637Z,987.35
2016-11-06T06:17:08.650Z,987.36
2016-11-06T06:18:08.664Z,987.34
2016-11-06T06:19:08.678Z,987.33
2016-11-06T06:20:08.697Z,987.32
2016-11-06T06:21:08.707Z,987.34
2016-11-06T06:22:08.723Z,987.33
2016-11-06T06:23:08.737Z,987.35
2016-11-06T06:24:08.752Z,987.34
2016-11-06T06:25:08.767Z,987.36
2016-11-06T06:26:08.782Z,987.39
2016-11-06T06:27:08.795Z,987.42
2016-11-06T06:28:08.813Z,987.4
2016-11-06T06:29:08.824Z,987.46
2016-11-06T06:30:08.840Z,987.45
2016-11-06T06:31:08.850Z,987.54
2016-11-06T06:32:08.865Z,987.55
2016-11-06T06:33:08.883Z,987.59
2016-11-06T06:34:08.898Z,987.58
2016-11-06T06:35:08.908Z,987.58
2016-11-06T06:36:08.924Z,987.57
2016-11-06T06:37:08.938Z,987.57
2016-11-06T06:38:08.951Z,987.63
2016-11-06T06:39:08.967Z,987.65
2016-11-06T06:40:08.981Z,987.68
2016-11-06T06:41:08.996Z,987.65
2016-11-06T06:42:09.012Z,987.65
2016-11-06T06:43:09.027Z,987.66
2016-11-06T06:44:09.040Z,987.66
2016-11-06T06:45:09.059Z,987.68
2016-11-06T06:46:09.069Z,987.67
2016-11-06T06:47:09.086Z,987.69
2016-11-06T06:48:09.099Z,987.66
2016-11-06T06:49:09.111Z,987.67
2016-11-06T06:50:09.126Z,987.67
2016-11-06T06:51:09.141Z,987.67
2016-11-06T06:52:09.155Z,987.69
2016-11-06T06:53:09.169Z,987.67
2016-11-06T06:54:09.183Z,987.61
2016-11-06T06:55:09.197Z,987.56
2016-11-06T06:56:09.213Z,987.56
2016-11-06T06:57:09.231Z,987.59
2016-11-06T06:58:09.245Z,987.55
2016-11-06T06:59:09.257Z,987.56
2016-11-06T07:00:09.271Z,987.57
2016-11-06T07:01:09.283Z,987.59
2016-11-06T07:02:09.300Z,987.59
2016-11-06T07:03:09.313Z,987.62
2016-11-06T07:04:09.327Z,987.62
2016-11-06T07:05:09.342Z,987.61
2016-11-06T07:06:09.357Z,987.62
2016-11-06T07:07:09.372Z,987.66
2016-11-06T07:08:09.385Z,987.66
2016-11-06T07:09:09.400Z,987.65
2016-11-06T07:10:09.417Z,987.67
2016-11-06T07:11:09.428Z,987.71
2016-11-06T07:12:09.443Z,987.76
2016-11-06T07:13:09.458Z,987.74
2016-11-06T07:14:09.471Z,987.83
2016-11-06T07:15:09.485Z,987.75
2016-11-06T07:16:09.501Z,987.77
2016-11-06T07:17:09.520Z,987.75
2016-11-06T07:18:09.529Z,987.82
2016-11-06T07:19:09.542Z,987.82
2016-11-06T07:20:09.574Z,987.83
2016-11-06T07:21:09.573Z,987.85
2016-11-06T07:22:09.587Z,987.85
2016-11-06T07:23:09.604Z,987.81
2016-11-06T07:24:09.617Z,987.8
2016-11-06T07:25:09.631Z,987.75
2016-11-06T07:26:09.643Z,987.73
2016-11-06T07:27:09.659Z,987.69
2016-11-06T07:28:09.673Z,987.67
2016-11-06T07:29:09.688Z,987.68
2016-11-06T07:30:09.706Z,987.66
2016-11-06T07:31:09.717Z,987.62
2016-11-06T07:32:09.732Z,987.61
2016-11-06T07:33:09.745Z,987.62
2016-11-06T07:34:09.761Z,987.62
2016-11-06T07:35:09.776Z,987.62
2016-11-06T07:36:09.792Z,987.64
2016-11-06T07:37:09.804Z,987.61
2016-11-06T07:38:09.819Z,987.61
2016-11-06T07:39:09.833Z,987.63
2016-11-06T07:40:09.846Z,987.61
2016-11-06T07:41:09.862Z,987.66
2016-11-06T07:42:09.876Z,987.69
2016-11-06T07:43:09.891Z,987.64
2016-11-06T07:44:09.904Z,987.67
2016-11-06T07:45:09.921Z,987.65
2016-11-06T07:46:09.936Z,987.66
2016-11-06T07:47:09.951Z,987.67
2016-11-06T07:48:09.963Z,987.66
2016-11-06T07:49:09.978Z,987.63
2016-11-06T07:50:09.992Z,987.61
2016-11-06T07:51:10.005Z,987.64
2016-11-06T07:52:10.022Z,987.66
2016-11-06T07:53:10.047Z,987.64
2016-11-06T07:54:10.051Z,987.65
2016-11-06T07:55:10.072Z,987.65
2016-11-06T07:56:10.079Z,987.64
2016-11-06T07:57:10.093Z,987.59
2016-11-06T07:58:10.108Z,987.63
2016-11-06T07:59:10.215Z,987.65
2016-11-06T08:00:10.166Z,987.64
2016-11-06T08:01:10.233Z,987.61
2016-11-06T08:02:10.198Z,987.59
2016-11-06T08:03:10.201Z,987.58
2016-11-06T08:04:10.194Z,987.57
2016-11-06T08:05:10.209Z,987.6
2016-11-06T08:06:10.225Z,987.53
2016-11-06T08:07:10.238Z,987.55
2016-11-06T08:08:10.254Z,987.55
2016-11-06T08:09:10.269Z,987.59
2016-11-06T08:10:10.284Z,987.58
2016-11-06T08:11:10.297Z,987.53
2016-11-06T08:12:10.313Z,987.58
2016-11-06T08:13:10.328Z,987.57
2016-11-06T08:14:10.342Z,987.56
2016-11-06T08:15:10.356Z,987.56
2016-11-06T08:16:10.382Z,987.55
2016-11-06T08:17:10.384Z,987.55
2016-11-06T08:18:10.400Z,987.59
2016-11-06T08:19:10.414Z,987.59
2016-11-06T08:20:10.437Z,987.61
2016-11-06T08:21:10.444Z,987.63
2016-11-06T08:22:10.468Z,987.66
2016-11-06T08:23:10.472Z,987.66
2016-11-06T08:24:10.496Z,987.71
2016-11-06T08:25:10.503Z,987.68
2016-11-06T08:26:10.516Z,987.7
2016-11-06T08:27:10.533Z,987.72
2016-11-06T08:28:10.547Z,987.72
2016-11-06T08:29:10.563Z,987.8
2016-11-06T08:30:10.577Z,987.83
2016-11-06T08:31:10.592Z,987.81
2016-11-06T08:32:10.613Z,987.81
2016-11-06T08:33:10.638Z,987.75
2016-11-06T08:34:10.636Z,987.74
2016-11-06T08:35:10.650Z,987.75
2016-11-06T08:36:10.665Z,987.75
2016-11-06T08:37:10.680Z,987.79
2016-11-06T08:38:10.696Z,987.77
2016-11-06T08:39:10.708Z,987.75
2016-11-06T08:40:10.724Z,987.78
2016-11-06T08:41:10.740Z,987.82
2016-11-06T08:42:10.759Z,987.81
2016-11-06T08:43:10.769Z,987.85
2016-11-06T08:44:10.783Z,987.85
2016-11-06T08:45:10.797Z,987.89
2016-11-06T08:46:10.818Z,987.89
2016-11-06T08:47:10.828Z,987.9
2016-11-06T08:48:10.842Z,987.9
2016-11-06T08:49:10.859Z,987.87
2016-11-06T08:50:10.872Z,987.93
2016-11-06T08:51:10.890Z,987.92
2016-11-06T08:52:10.903Z,987.96
2016-11-06T08:53:10.917Z,987.96
2016-11-06T08:54:10.931Z,988.03
2016-11-06T08:55:10.947Z,988
2016-11-06T08:56:10.962Z,988.03
2016-11-06T08:57:10.976Z,988.07
2016-11-06T08:58:10.992Z,988.04
2016-11-06T08:59:11.005Z,988.07
2016-11-06T09:00:11.021Z,988.14
2016-11-06T09:01:11.036Z,988.11
2016-11-06T09:02:11.050Z,988.08
2016-11-06T09:03:11.066Z,988.03
2016-11-06T09:04:11.082Z,988.02
2016-11-06T09:05:11.095Z,988.01
2016-11-06T09:06:11.111Z,988.02
2016-11-06T09:07:11.126Z,988.01
2016-11-06T09:08:11.141Z,988.03
2016-11-06T09:09:11.156Z,988.07
2016-11-06T09:10:11.173Z,988.01
2016-11-06T09:11:11.188Z,988.02
2016-11-06T09:12:11.202Z,988.05
2016-11-06T09:13:11.215Z,988.05
2016-11-06T09:14:11.232Z,988.08
2016-11-06T09:15:11.245Z,988.18
2016-11-06T09:16:11.261Z,988.21
2016-11-06T09:17:11.276Z,988.24
2016-11-06T09:18:11.293Z,988.27
2016-11-06T09:19:11.305Z,988.32
2016-11-06T09:20:11.321Z,988.31
2016-11-06T09:21:11.338Z,988.32
2016-11-06T09:22:11.354Z,988.35
2016-11-06T09:23:11.367Z,988.36
2016-11-06T09:24:11.382Z,988.34
2016-11-06T09:25:11.398Z,988.3
2016-11-06T09:26:11.411Z,988.25
2016-11-06T09:27:11.427Z,988.28
2016-11-06T09:28:11.442Z,988.28
2016-11-06T09:29:11.459Z,988.31
2016-11-06T09:30:11.473Z,988.27
2016-11-06T09:31:11.490Z,988.21
2016-11-06T09:32:11.503Z,988.19
2016-11-06T09:33:11.519Z,988.18
2016-11-06T09:34:11.536Z,988.17
2016-11-06T09:35:11.548Z,988.14
2016-11-06T09:36:11.566Z,988.14
2016-11-06T09:37:11.579Z,988.14
2016-11-06T09:38:11.593Z,988.13
2016-11-06T09:39:11.609Z,988.12
2016-11-06T09:40:11.627Z,988.09
2016-11-06T09:41:11.643Z,988.12
2016-11-06T09:42:11.656Z,988.16
2016-11-06T09:43:11.672Z,988.15
2016-11-06T09:44:11.690Z,988.17
2016-11-06T09:45:11.706Z,988.16
2016-11-06T09:46:11.717Z,988.16
2016-11-06T09:47:11.734Z,988.16
2016-11-06T09:48:11.749Z,988.23
2016-11-06T09:49:11.764Z,988.21
2016-11-06T09:50:11.779Z,988.26
2016-11-06T09:51:11.796Z,988.25
2016-11-06T09:52:11.813Z,988.22
2016-11-06T09:53:11.825Z,988.24
2016-11-06T09:54:11.839Z,988.23
2016-11-06T09:55:11.855Z,988.24
2016-11-06T09:56:11.871Z,988.22
2016-11-06T09:57:11.885Z,988.23
2016-11-06T09:58:11.901Z,988.22
2016-11-06T09:59:11.919Z,988.17
2016-11-06T10:00:11.932Z,988.16
2016-11-06T10:01:11.947Z,988.16
2016-11-06T10:02:11.967Z,988.21
2016-11-06T10:03:11.978Z,988.21
2016-11-06T10:04:11.995Z,988.23
2016-11-06T10:05:12.011Z,988.23
2016-11-06T10:06:12.026Z,988.18
2016-11-06T10:07:12.039Z,988.15
2016-11-06T10:08:12.057Z,988.16
2016-11-06T10:09:12.071Z,988.09
2016-11-06T10:10:12.085Z,988.04
2016-11-06T10:11:12.103Z,988
2016-11-06T10:12:12.119Z,987.95
2016-11-06T10:13:12.133Z,987.93
2016-11-06T10:14:12.156Z,987.9
2016-11-06T10:15:12.165Z,987.88
2016-11-06T10:16:12.182Z,987.84
2016-11-06T10:17:12.198Z,987.83
2016-11-06T10:18:12.211Z,987.83
2016-11-06T10:19:12.226Z,987.8
2016-11-06T10:20:12.243Z,987.81
2016-11-06T10:21:12.257Z,987.76
2016-11-06T10:22:12.273Z,987.78
2016-11-06T10:23:12.291Z,987.8
2016-11-06T10:24:12.305Z,987.79
2016-11-06T10:25:12.319Z,987.8
2016-11-06T10:26:12.335Z,987.82
2016-11-06T10:27:12.351Z,987.85
2016-11-06T10:28:12.368Z,987.83
2016-11-06T10:29:12.383Z,987.84
2016-11-06T10:30:12.398Z,987.84
2016-11-06T10:31:12.415Z,987.86
2016-11-06T10:32:12.430Z,987.85
2016-11-06T10:33:12.446Z,987.85
2016-11-06T10:34:12.461Z,987.88
2016-11-06T10:35:12.477Z,987.9
2016-11-06T10:36:12.494Z,987.86
2016-11-06T10:37:12.507Z,987.87
2016-11-06T10:38:12.524Z,987.9
2016-11-06T10:39:12.540Z,987.88
2016-11-06T10:40:12.556Z,987.89
2016-11-06T10:41:12.572Z,987.93
2016-11-06T10:42:12.588Z,987.89
2016-11-06T10:43:12.604Z,987.8
2016-11-06T10:44:12.619Z,987.74
2016-11-06T10:45:12.636Z,987.71
2016-11-06T10:46:12.653Z,987.67
2016-11-06T10:47:12.668Z,987.68
2016-11-06T10:48:12.684Z,987.69
2016-11-06T10:49:12.700Z,987.67
2016-11-06T10:50:12.714Z,987.7
2016-11-06T10:51:12.730Z,987.69
2016-11-06T10:52:12.748Z,987.68
2016-11-06T10:53:12.763Z,987.68
2016-11-06T10:54:12.778Z,987.68
2016-11-06T10:55:12.795Z,987.69
2016-11-06T10:56:12.813Z,987.7
2016-11-06T10:57:12.832Z,987.74
2016-11-06T10:58:12.843Z,987.79
2016-11-06T10:59:12.859Z,987.8
2016-11-06T11:00:12.876Z,987.76
2016-11-06T11:01:12.891Z,987.79
2016-11-06T11:02:12.908Z,987.79
2016-11-06T11:03:12.925Z,987.8
2016-11-06T11:04:12.940Z,987.84
2016-11-06T11:05:12.955Z,987.93
2016-11-06T11:06:12.972Z,988.03
2016-11-06T11:07:12.986Z,988.09
2016-11-06T11:08:13.003Z,988.08
2016-11-06T11:09:13.018Z,987.95
2016-11-06T11:10:13.036Z,987.96
2016-11-06T11:11:13.052Z,987.93
2016-11-06T11:12:13.093Z,987.89
2016-11-06T11:13:13.083Z,987.85
2016-11-06T11:14:13.101Z,987.82
2016-11-06T11:15:13.116Z,987.84
2016-11-06T11:16:13.131Z,987.8
2016-11-06T11:17:13.147Z,987.73
2016-11-06T11:18:13.165Z,987.66
2016-11-06T11:19:13.182Z,987.64
2016-11-06T11:20:13.199Z,987.61
2016-11-06T11:21:13.213Z,987.61
2016-11-06T11:22:13.230Z,987.61
2016-11-06T11:23:13.244Z,987.67
2016-11-06T11:24:13.262Z,987.69
2016-11-06T11:25:13.281Z,987.63
2016-11-06T11:26:13.294Z,987.61
2016-11-06T11:27:13.309Z,987.55
2016-11-06T11:28:13.328Z,987.51
2016-11-06T11:29:13.343Z,987.51
2016-11-06T11:30:13.360Z,987.48
2016-11-06T11:31:13.375Z,987.49
2016-11-06T11:32:13.392Z,987.5
2016-11-06T11:33:13.409Z,987.42
2016-11-06T11:34:13.425Z,987.39
2016-11-06T11:35:13.441Z,987.42
2016-11-06T11:36:13.458Z,987.4
2016-11-06T11:37:13.474Z,987.37
2016-11-06T11:38:13.491Z,987.4
2016-11-06T11:39:13.508Z,987.46
2016-11-06T11:40:13.523Z,987.49
2016-11-06T11:41:13.540Z,987.49
2016-11-06T11:42:13.556Z,987.49
2016-11-06T11:43:13.574Z,987.42
2016-11-06T11:44:13.590Z,987.41
2016-11-06T11:45:13.607Z,987.45
2016-11-06T11:46:13.622Z,987.47
2016-11-06T11:47:13.639Z,987.52
2016-11-06T11:48:13.656Z,987.55
2016-11-06T11:49:13.672Z,987.55
2016-11-06T11:50:13.687Z,987.53
2016-11-06T11:51:13.706Z,987.48
2016-11-06T11:52:13.722Z,987.49
2016-11-06T11:53:13.739Z,987.45
2016-11-06T11:54:13.755Z,987.49
2016-11-06T11:55:13.771Z,987.51
2016-11-06T11:56:13.788Z,987.51
2016-11-06T11:57:13.804Z,987.52
2016-11-06T11:58:13.820Z,987.54
2016-11-06T11:59:13.842Z,987.53
2016-11-06T12:00:13.854Z,987.53
2016-11-06T12:01:13.872Z,987.52
2016-11-06T12:02:13.888Z,987.51
2016-11-06T12:03:13.908Z,987.46
2016-11-06T12:04:13.922Z,987.49
2016-11-06T12:05:13.938Z,987.46
2016-11-06T12:06:13.960Z,987.44
2016-11-06T12:07:13.970Z,987.43
2016-11-06T12:08:13.991Z,987.42
2016-11-06T12:09:14.005Z,987.42
2016-11-06T12:10:14.024Z,987.37
2016-11-06T12:11:14.040Z,987.36
2016-11-06T12:12:14.055Z,987.37
2016-11-06T12:13:14.073Z,987.37
2016-11-06T12:14:14.089Z,987.35
2016-11-06T12:15:14.107Z,987.34
2016-11-06T12:16:14.126Z,987.36
2016-11-06T12:17:14.141Z,987.36
2016-11-06T12:18:14.158Z,987.29
2016-11-06T12:19:14.173Z,987.26
2016-11-06T12:20:14.192Z,987.31
2016-11-06T12:21:14.208Z,987.3
2016-11-06T12:22:14.226Z,987.29
2016-11-06T12:23:14.243Z,987.31
2016-11-06T12:24:14.259Z,987.35
2016-11-06T12:25:14.276Z,987.38
2016-11-06T12:26:14.293Z,987.34
2016-11-06T12:27:14.311Z,987.39
2016-11-06T12:28:14.326Z,987.39
2016-11-06T12:29:14.343Z,987.33
2016-11-06T12:30:14.362Z,987.34
2016-11-06T12:31:14.379Z,987.35